Time;durP1;ratioP1;P1;durP2;ratioP2;P2;SDS_P1;SDS_P2;PMS_P1;PMS_P2;Temp;Humidity;BMP_temperature;BMP_pressure;BME280_temperature;BME280_humidity;BME280_pressure;Samples;Min_cycle;Max_cycle;Signal;HPM_P1;HPM_P2
2023/01/13 00:02:14;;;;;;;;;;;;;;;20.17;54.52;99930.34;5012384;28;4150;-59
2023/01/13 00:04:41;;;;;;;;;;;;;;;20.16;54.49;99943.97;5017460;28;4095;-59
2023/01/13 00:07:07;;;;;;;;;;;;;;;20.17;54.36;99944.69;5017507;28;4142;-59
2023/01/13 00:09:34;;;;;;;;;;;;;;;20.16;54.41;99943.22;5009450;28;5262;-59
2023/01/13 00:12:00;;;;;;;;;;;;;;;20.16;54.37;99943.22;5004852;28;4185;-59
2023/01/13 00:14:28;;;;;;;;;;;;;;;20.15;54.57;99941.75;5021639;28;5338;-59
2023/01/13 00:16:55;;;;;;;;;;;;;;;20.15;54.46;99945.38;5015005;28;3997;-59
2023/01/13 00:19:22;;;;;;;;;;;;;;;20.15;54.67;99944.63;5013524;28;5465;-59
2023/01/13 00:21:48;;;;;;;;;;;;;;;20.14;54.54;99941.03;5016859;28;4198;-59
2023/01/13 00:24:14;;;;;;;;;;;;;;;20.15;54.49;99941.75;5015670;28;4116;-59
2023/01/13 00:26:41;;;;;;;;;;;;;;;20.12;54.54;99940.22;5012979;28;5467;-59
2023/01/13 00:29:07;;;;;;;;;;;;;;;20.12;54.21;99935.22;5010036;28;4147;-59
2023/01/13 00:31:34;;;;;;;;;;;;;;;20.12;54.47;99940.22;5017657;28;5400;-59
2023/01/13 00:34:01;;;;;;;;;;;;;;;20.11;54.46;99936.59;5017143;28;4202;-59
2023/01/13 00:36:27;;;;;;;;;;;;;;;20.09;54.26;99937.28;5008918;28;4329;-59
2023/01/13 00:38:54;;;;;;;;;;;;;;;20.11;54.20;99935.88;4994123;28;4038;-59
2023/01/13 00:41:21;;;;;;;;;;;;;;;20.11;54.54;99927.25;5012408;28;4263;-59
2023/01/13 00:43:48;;;;;;;;;;;;;;;20.10;54.33;99935.16;5010322;28;5656;-59
2023/01/13 00:46:15;;;;;;;;;;;;;;;20.11;54.27;99938.75;5018537;28;4392;-59
2023/01/13 00:48:41;;;;;;;;;;;;;;;20.11;54.22;99930.13;5011884;28;5257;-60
2023/01/13 00:51:17;;;;;;;;;;;;;;;20.11;54.31;99930.13;4993857;28;4015;-59
2023/01/13 00:53:45;;;;;;;;;;;;;;;20.13;54.19;99924.44;5017643;28;4154;-59
2023/01/13 00:56:13;;;;;;;;;;;;;;;20.13;54.43;99924.44;5013505;28;5208;-59
2023/01/13 00:58:39;;;;;;;;;;;;;;;20.13;54.38;99924.44;5017075;28;4017;-59
2023/01/13 01:01:06;;;;;;;;;;;;;;;20.14;54.35;99929.53;5013206;28;5454;-59
2023/01/13 01:03:34;;;;;;;;;;;;;;;20.14;54.65;99929.53;5011505;28;4159;-59
2023/01/13 01:06:04;;;;;;;;;;;;;;;20.14;54.46;99915.16;5013340;28;5155;-59
2023/01/13 01:08:31;;;;;;;;;;;;;;;20.15;54.59;99924.50;5015201;28;4118;-59
2023/01/13 01:11:01;;;;;;;;;;;;;;;20.14;54.56;99923.78;5006134;28;4330;-59
2023/01/13 01:13:27;;;;;;;;;;;;;;;20.12;54.68;99926.59;4995646;28;4461;-59
2023/01/13 01:15:54;;;;;;;;;;;;;;;20.13;54.64;99933.06;5011126;28;4280;-60
2023/01/13 01:18:20;;;;;;;;;;;;;;;20.13;54.61;99927.31;5017809;28;4191;-59
2023/01/13 01:20:47;;;;;;;;;;;;;;;20.13;54.50;99915.81;5016637;28;4161;-59
2023/01/13 01:23:13;;;;;;;;;;;;;;;20.13;54.45;99927.31;5015036;28;5223;-59
2023/01/13 01:25:39;;;;;;;;;;;;;;;20.11;54.66;99922.22;5014134;28;4375;-61
2023/01/13 01:28:06;;;;;;;;;;;;;;;20.11;54.52;99924.38;5017357;28;4124;-62
2023/01/13 01:30:32;;;;;;;;;;;;;;;20.12;54.49;99931.63;5003693;28;4228;-61
2023/01/13 01:33:01;;;;;;;;;;;;;;;20.11;54.60;99935.88;5014203;28;4116;-61
2023/01/13 01:35:28;;;;;;;;;;;;;;;20.11;54.52;99930.13;5012458;28;4192;-61
2023/01/13 01:37:54;;;;;;;;;;;;;;;20.09;54.56;99920.03;5007942;28;4222;-60
2023/01/13 01:40:21;;;;;;;;;;;;;;;20.09;54.65;99920.03;5010959;28;4161;-61
2023/01/13 01:45:46;;;;;;;;;;;;;;;20.08;54.64;99915.69;4961771;28;4379;-60
2023/01/13 01:48:13;;;;;;;;;;;;;;;20.08;54.52;99918.56;5017128;28;5619;-60
2023/01/13 01:50:39;;;;;;;;;;;;;;;20.08;54.62;99914.97;5017089;28;4193;-61
2023/01/13 01:53:10;;;;;;;;;;;;;;;20.07;54.52;99919.97;5016963;28;4122;-61
2023/01/13 01:55:37;;;;;;;;;;;;;;;20.06;54.54;99907.00;4989531;28;5525;-60
2023/01/13 01:58:08;;;;;;;;;;;;;;;20.08;54.68;99912.09;5014624;28;4168;-60
2023/01/13 02:00:35;;;;;;;;;;;;;;;20.06;54.61;99912.00;5013779;28;4337;-61
2023/01/13 02:03:01;;;;;;;;;;;;;;;20.05;54.57;99905.53;5015022;28;4182;-61
2023/01/13 02:05:28;;;;;;;;;;;;;;;20.05;54.68;99911.28;5017085;28;5337;-61
2023/01/13 02:07:55;;;;;;;;;;;;;;;20.04;54.62;99898.34;5021616;28;5147;-61
2023/01/13 02:10:22;;;;;;;;;;;;;;;20.04;54.59;99909.84;5016655;28;4185;-61
2023/01/13 02:12:49;;;;;;;;;;;;;;;20.04;54.52;99904.09;5018313;28;6154;-60
2023/01/13 02:15:16;;;;;;;;;;;;;;;20.03;54.51;99902.59;5017788;28;4184;-60
2023/01/13 02:17:46;;;;;;;;;;;;;;;20.02;54.64;99891.75;4991522;28;4121;-61
2023/01/13 02:20:13;;;;;;;;;;;;;;;20.02;54.69;99898.25;5018188;28;5314;-61
2023/01/13 02:22:48;;;;;;;;;;;;;;;20.02;54.68;99892.53;5022008;28;5085;-60
2023/01/13 02:25:37;;;;;;;;;;;;;;;20.00;54.65;99906.81;5017082;28;5421;-60
2023/01/13 02:28:11;;;;;;;;;;;;;;;20.00;54.74;99886.69;4992534;28;5530;-61
2023/01/13 02:33:39;;;;;;;;;;;;;;;19.99;54.60;99890.97;5014724;28;5261;-61
2023/01/13 02:36:20;;;;;;;;;;;;;;;19.99;54.76;99890.25;4989381;28;4113;-60
2023/01/13 02:38:51;;;;;;;;;;;;;;;19.98;54.63;99878.00;5017947;28;4222;-60
2023/01/13 02:51:11;;;;;;;;;;;;;;;19.96;54.44;99885.84;4980379;28;4052;-60
2023/01/13 02:53:38;;;;;;;;;;;;;;;19.97;54.48;99888.03;4986708;28;4483;-60
2023/01/13 02:56:05;;;;;;;;;;;;;;;19.97;54.53;99887.28;5015291;28;4021;-60
2023/01/13 02:58:31;;;;;;;;;;;;;;;19.97;54.52;99882.28;5017745;28;4242;-60
2023/01/13 03:00:58;;;;;;;;;;;;;;;19.97;54.35;99882.28;5003350;28;4146;-60
2023/01/13 03:03:24;;;;;;;;;;;;;;;19.95;54.28;99873.63;5018969;28;5422;-60
2023/01/13 03:05:52;;;;;;;;;;;;;;;19.96;54.48;99862.84;5021685;28;4222;-60
2023/01/13 03:08:18;;;;;;;;;;;;;;;19.95;54.48;99849.88;5018151;28;4170;-61
2023/01/13 03:10:53;;;;;;;;;;;;;;;19.94;54.63;99857.03;5017118;28;4207;-61
2023/01/13 03:13:24;;;;;;;;;;;;;;;19.92;54.41;99866.31;4989799;28;5513;-61
2023/01/13 03:15:58;;;;;;;;;;;;;;;19.94;54.38;99848.41;5012853;28;4217;-61
2023/01/13 03:18:31;;;;;;;;;;;;;;;19.93;54.47;99853.44;4990941;28;4190;-61
2023/01/13 03:21:00;;;;;;;;;;;;;;;19.93;54.27;99864.94;4993348;28;4153;-60
2023/01/13 03:23:29;;;;;;;;;;;;;;;19.93;54.37;99867.81;5015211;28;4189;-60
2023/01/13 03:25:59;;;;;;;;;;;;;;;19.92;54.30;99857.69;4999271;28;5266;-60
2023/01/13 03:28:29;;;;;;;;;;;;;;;19.92;54.29;99860.56;5010516;28;4257;-61
2023/01/13 03:30:57;;;;;;;;;;;;;;;19.92;54.31;99871.34;4997306;28;5216;-60
2023/01/13 03:33:31;;;;;;;;;;;;;;;19.91;54.18;99873.47;5005217;28;5265;-60
2023/01/13 03:36:07;;;;;;;;;;;;;;;19.92;54.38;99874.22;4983449;28;5245;-60
2023/01/13 03:38:35;;;;;;;;;;;;;;;19.91;54.26;99867.72;5001909;28;5276;-60
2023/01/13 03:41:06;;;;;;;;;;;;;;;19.92;54.38;99869.19;4997054;28;4211;-60
2023/01/13 03:46:24;;;;;;;;;;;;;;;19.95;54.42;99867.88;4999772;28;5305;-60
2023/01/13 03:48:51;;;;;;;;;;;;;;;19.97;54.47;99870.78;4998000;28;3925;-59
2023/01/13 03:51:18;;;;;;;;;;;;;;;19.98;54.65;99863.66;5015986;28;4411;-60
2023/01/13 03:53:46;;;;;;;;;;;;;;;20.00;54.48;99863.00;4997804;28;4238;-60
2023/01/13 03:56:15;;;;;;;;;;;;;;;20.01;54.55;99859.44;4988866;28;4220;-60
2023/01/13 03:58:41;;;;;;;;;;;;;;;20.02;54.58;99854.41;5015965;28;4380;-60
2023/01/13 04:01:14;;;;;;;;;;;;;;;20.02;54.53;99855.16;5019250;28;5495;-60
2023/01/13 04:03:41;;;;;;;;;;;;;;;20.02;54.75;99860.16;5013526;28;4451;-60
2023/01/13 04:06:11;;;;;;;;;;;;;;;20.02;54.71;99849.41;5014140;28;5587;-60
2023/01/13 04:08:38;;;;;;;;;;;;;;;20.02;54.65;99854.41;5016740;28;4273;-60
2023/01/13 04:11:08;;;;;;;;;;;;;;;20.02;54.68;99852.28;5020445;28;4434;-60
2023/01/13 04:13:35;;;;;;;;;;;;;;;20.02;54.85;99855.16;5013109;28;4146;-60
2023/01/13 04:16:02;;;;;;;;;;;;;;;20.01;54.71;99853.69;4994115;28;5300;-60
2023/01/13 04:18:29;;;;;;;;;;;;;;;20.02;54.97;99857.28;4989383;28;4144;-60
2023/01/13 04:20:56;;;;;;;;;;;;;;;20.01;54.72;99850.81;5019935;28;4155;-60
2023/01/13 04:23:22;;;;;;;;;;;;;;;20.00;54.79;99857.97;5013531;28;3937;-60
2023/01/13 04:25:48;;;;;;;;;;;;;;;20.00;54.80;99860.84;5012527;28;5228;-60
2023/01/13 04:28:15;;;;;;;;;;;;;;;20.00;54.74;99869.47;5004187;28;4155;-60
2023/01/13 04:30:41;;;;;;;;;;;;;;;20.01;54.75;99870.19;5008999;28;4271;-60
2023/01/13 04:33:08;;;;;;;;;;;;;;;20.02;54.72;99866.66;5012409;28;4168;-60
2023/01/13 04:35:34;;;;;;;;;;;;;;;20.02;54.79;99869.53;5015333;28;4178;-60
2023/01/13 04:38:01;;;;;;;;;;;;;;;20.04;54.93;99863.84;5017268;28;5215;-60
2023/01/13 04:40:27;;;;;;;;;;;;;;;20.05;54.75;99867.44;5010585;28;4117;-60
2023/01/13 04:42:53;;;;;;;;;;;;;;;20.05;54.65;99859.56;5016941;28;4181;-60
2023/01/13 04:45:20;;;;;;;;;;;;;;;20.07;54.68;99867.53;5014516;28;5189;-60
2023/01/13 04:47:47;;;;;;;;;;;;;;;20.07;54.79;99874.00;5016415;28;4179;-60
2023/01/13 04:50:13;;;;;;;;;;;;;;;20.07;54.77;99874.00;5016313;28;4208;-60
2023/01/13 04:52:40;;;;;;;;;;;;;;;20.07;54.87;99865.38;5019090;28;4071;-60
2023/01/13 04:55:06;;;;;;;;;;;;;;;20.06;54.94;99872.50;5012250;28;5319;-60
2023/01/13 04:57:33;;;;;;;;;;;;;;;20.06;55.02;99866.75;5010085;28;4102;-59
2023/01/13 05:00:00;;;;;;;;;;;;;;;20.07;54.91;99873.28;5010700;28;5288;-60
2023/01/13 05:02:27;;;;;;;;;;;;;;;20.06;54.87;99872.50;5017057;28;4170;-60
2023/01/13 05:04:53;;;;;;;;;;;;;;;20.06;54.92;99881.13;5019172;28;4173;-60
2023/01/13 05:07:19;;;;;;;;;;;;;;;20.08;55.05;99891.97;5015196;28;4216;-61
2023/01/13 05:09:46;;;;;;;;;;;;;;;20.07;54.83;99885.50;5014702;28;4178;-60
2023/01/13 05:17:42;;;;;;;;;;;;;;;20.09;54.92;99894.19;5014029;28;4185;-60
2023/01/13 05:20:08;;;;;;;;;;;;;;;20.09;54.84;99891.31;5015237;28;3993;-60
2023/01/13 05:25:20;;;;;;;;;;;;;;;20.12;54.82;99891.38;5012084;28;4166;-60
2023/01/13 05:27:47;;;;;;;;;;;;;;;20.12;54.75;99900.72;5017244;28;4176;-60
2023/01/13 05:30:13;;;;;;;;;;;;;;;20.12;54.80;99906.47;5008212;28;4394;-60
2023/01/13 05:32:39;;;;;;;;;;;;;;;20.13;54.66;99895.69;5014471;28;4158;-60
2023/01/13 05:35:06;;;;;;;;;;;;;;;20.13;54.81;99895.69;5023050;28;4220;-60
2023/01/13 05:37:32;;;;;;;;;;;;;;;20.12;54.85;99902.88;5018678;28;4317;-60
2023/01/13 05:45:31;;;;;;;;;;;;;;;20.12;55.04;99923.00;5015496;28;5223;-60
2023/01/13 05:47:57;;;;;;;;;;;;;;;20.10;55.08;99917.91;5014708;28;4169;-60
2023/01/13 05:50:24;;;;;;;;;;;;;;;20.10;54.98;99920.78;5018325;28;4199;-61
2023/01/13 05:52:50;;;;;;;;;;;;;;;20.12;55.02;99923.00;5014281;28;5281;-60
2023/01/13 05:55:16;;;;;;;;;;;;;;;20.11;54.89;99919.34;5020245;28;4148;-60
2023/01/13 05:57:43;;;;;;;;;;;;;;;20.12;55.07;99920.13;5010945;28;4077;-60
2023/01/13 06:00:10;;;;;;;;;;;;;;;20.13;55.14;99916.56;5004363;28;4397;-60
2023/01/13 06:02:39;;;;;;;;;;;;;;;20.13;55.04;99921.56;5007967;28;4123;-60
2023/01/13 06:05:05;;;;;;;;;;;;;;;20.13;55.13;99915.81;5019726;28;4327;-61
2023/01/13 06:07:31;;;;;;;;;;;;;;;20.15;54.98;99913.03;5019170;28;4066;-61
2023/01/13 06:09:58;;;;;;;;;;;;;;;20.18;55.14;99906.69;5015720;28;4275;-60
2023/01/13 06:12:24;;;;;;;;;;;;;;;20.21;55.62;99910.34;5007548;28;4125;-60
2023/01/13 06:14:51;;;;;;;;;;;;;;;20.20;55.83;99914.63;5009698;28;4321;-60
2023/01/13 06:17:17;;;;;;;;;;;;;;;20.16;55.91;99914.47;5020187;28;5374;-71
2023/01/13 06:19:43;;;;;;;;;;;;;;;20.20;55.58;99917.47;5004094;28;5473;-72
2023/01/13 06:22:16;;;;;;;;;;;;;;;20.20;55.58;99918.25;5005183;28;4040;-73
2023/01/13 06:24:44;;;;;;;;;;;;;;;20.21;56.86;99911.06;5008011;28;4007;-71
2023/01/13 06:27:11;;;;;;;;;;;;;;;20.19;56.92;99924.66;5014961;28;4142;-71
2023/01/13 06:29:37;;;;;;;;;;;;;;;20.20;56.12;99931.84;5022742;28;4117;-71
2023/01/13 06:32:10;;;;;;;;;;;;;;;20.22;56.36;99929.06;5017475;28;4901;-71
2023/01/13 06:34:36;;;;;;;;;;;;;;;20.20;56.62;99914.63;4993377;28;4403;-68
2023/01/13 06:37:03;;;;;;;;;;;;;;;20.20;56.46;99914.63;5022705;28;4124;-68
2023/01/13 06:39:30;;;;;;;;;;;;;;;20.19;57.15;99916.75;5016051;28;3999;-69
2023/01/13 06:44:42;;;;;;;;;;;;;;;20.19;57.32;99895.91;5015648;28;4022;-70
2023/01/13 06:47:08;;;;;;;;;;;;;;;20.18;57.43;99900.16;5016068;28;4202;-68
2023/01/13 06:49:34;;;;;;;;;;;;;;;20.19;57.50;99902.38;5010405;28;4854;-69
2023/01/13 06:52:00;;;;;;;;;;;;;;;20.19;57.19;99913.16;5013729;28;5145;-70
2023/01/13 06:54:27;;;;;;;;;;;;;;;20.18;57.31;99905.91;5019733;28;4147;-68
2023/01/13 06:56:53;;;;;;;;;;;;;;;20.17;57.49;99899.44;5018888;28;4187;-68
2023/01/13 06:59:20;;;;;;;;;;;;;;;20.15;58.17;99907.28;5017009;28;4025;-67
2023/01/13 07:01:46;;;;;;;;;;;;;;;20.16;58.26;99917.34;5014483;28;4129;-67
2023/01/13 07:04:13;;;;;;;;;;;;;;;20.15;58.32;99910.88;5014306;28;4827;-67
2023/01/13 07:06:39;;;;;;;;;;;;;;;20.14;58.35;99912.28;5020257;28;4026;-68
2023/01/13 07:09:06;;;;;;;;;;;;;;;20.14;58.26;99882.81;5016696;28;4481;-68
2023/01/13 07:11:32;;;;;;;;;;;;;;;20.11;57.90;99879.13;5016208;28;3953;-70
2023/01/13 07:16:44;;;;;;;;;;;;;;;20.18;57.97;99883.69;5020129;28;4320;-70
2023/01/13 07:19:11;;;;;;;;;;;;;;;20.16;58.49;99891.47;5017934;28;4400;-69
2023/01/13 07:21:37;;;;;;;;;;;;;;;20.07;58.26;99894.13;5017147;28;4036;-68
2023/01/13 07:24:04;;;;;;;;;;;;;;;20.12;57.87;99905.75;5014774;28;4000;-68
2023/01/13 07:26:30;;;;;;;;;;;;;;;20.12;58.15;99891.38;5016957;28;4183;-68
2023/01/13 07:28:56;;;;;;;;;;;;;;;20.08;58.17;99912.81;5018407;28;4105;-68
2023/01/13 07:31:24;;;;;;;;;;;;;;;20.08;58.42;99921.44;5016192;28;4012;-68
2023/01/13 07:33:51;;;;;;;;;;;;;;;20.08;58.37;99892.69;5017565;28;4287;-68
2023/01/13 07:36:17;;;;;;;;;;;;;;;20.07;58.41;99914.22;5010694;28;3976;-68
2023/01/13 07:38:43;;;;;;;;;;;;;;;20.05;57.39;99927.81;5018710;28;4255;-68
2023/01/13 07:43:59;;;;;;;;;;;;;;;20.08;55.98;99935.81;5014338;28;5543;-67
2023/01/13 07:46:25;;;;;;;;;;;;;;;20.04;56.13;99927.06;5010897;28;5729;-72
2023/01/13 07:48:51;;;;;;;;;;;;;;;20.05;55.00;99922.06;5019152;28;4194;-70
2023/01/13 07:51:18;;;;;;;;;;;;;;;20.02;54.83;99924.13;5017229;28;5255;-70
2023/01/13 07:53:44;;;;;;;;;;;;;;;19.97;55.03;99925.38;5019054;28;4097;-70
2023/01/13 07:56:10;;;;;;;;;;;;;;;19.98;55.20;99929.75;5012583;28;5636;-70
2023/01/13 07:58:37;;;;;;;;;;;;;;;19.99;55.39;99948.44;5012350;28;5251;-71
2023/01/13 08:01:10;;;;;;;;;;;;;;;19.99;55.39;99953.44;5016778;28;4355;-70
2023/01/13 08:03:37;;;;;;;;;;;;;;;20.00;55.32;99949.19;5018269;28;4069;-73
2023/01/13 08:06:04;;;;;;;;;;;;;;;20.01;55.31;99951.38;5000644;28;4103;-71
2023/01/13 08:08:30;;;;;;;;;;;;;;;20.00;55.31;99947.03;5013295;28;5114;-70
2023/01/13 08:10:57;;;;;;;;;;;;;;;20.02;55.37;99958.59;5018056;28;4384;-70
2023/01/13 08:13:24;;;;;;;;;;;;;;;20.05;55.78;99971.63;5015625;28;4204;-70
2023/01/13 08:15:51;;;;;;;;;;;;;;;20.05;55.78;99973.78;4995450;28;4029;-74
2023/01/13 08:18:21;;;;;;;;;;;;;;;20.36;56.17;99969.75;5001576;28;4187;-79
2023/01/13 08:20:47;;;;;;;;;;;;;;;20.54;55.99;99963.84;5016180;28;4244;-81
2023/01/13 08:23:14;;;;;;;;;;;;;;;20.66;55.63;99969.28;5008036;28;4160;-76
2023/01/13 08:25:40;;;;;;;;;;;;;;;20.73;55.62;99956.56;5016415;28;4980;-80
2023/01/13 08:28:07;;;;;;;;;;;;;;;20.70;55.06;99972.28;5014074;28;4033;-68
2023/01/13 08:30:33;;;;;;;;;;;;;;;20.78;55.50;99971.81;5005104;28;4132;-70
2023/01/13 08:33:00;;;;;;;;;;;;;;;20.85;55.47;99965.56;5008718;28;5186;-71
2023/01/13 08:35:27;;;;;;;;;;;;;;;20.97;55.14;99984.59;5022028;28;4168;-69
2023/01/13 08:37:53;;;;;;;;;;;;;;;20.90;55.02;99967.13;5019082;28;4223;-72
2023/01/13 08:40:20;;;;;;;;;;;;;;;20.93;54.81;99954.28;5016212;28;5301;-71
2023/01/13 08:42:47;;;;;;;;;;;;;;;20.97;54.90;99967.34;5015563;28;4325;-72
2023/01/13 08:45:14;;;;;;;;;;;;;;;20.95;54.57;99984.53;5017120;28;4133;-69
2023/01/13 08:47:40;;;;;;;;;;;;;;;20.98;54.81;100003.31;4999955;28;4200;-73
2023/01/13 08:50:07;;;;;;;;;;;;;;;21.03;54.64;99987.66;5018533;28;4231;-73
2023/01/13 08:52:33;;;;;;;;;;;;;;;21.07;54.50;99996.41;5013700;28;4134;-71
2023/01/13 08:54:59;;;;;;;;;;;;;;;21.03;54.17;99993.41;5018382;28;5367;-72
2023/01/13 08:57:26;;;;;;;;;;;;;;;21.08;54.51;99966.94;5017555;28;4191;-70
2023/01/13 08:59:52;;;;;;;;;;;;;;;20.95;54.56;99959.34;5018908;28;4359;-72
2023/01/13 09:02:19;;;;;;;;;;;;;;;20.76;55.13;99966.72;5015112;28;4358;-72
2023/01/13 09:04:45;;;;;;;;;;;;;;;21.01;54.77;99927.16;5013956;28;4266;-72
2023/01/13 09:07:12;;;;;;;;;;;;;;;21.16;54.02;99851.28;5023352;28;4145;-72
2023/01/13 09:09:38;;;;;;;;;;;;;;;21.12;53.96;99911.66;5012569;28;4188;-68
2023/01/13 09:14:49;;;;;;;;;;;;;;;20.99;54.33;99979.63;5015425;28;6164;-68
2023/01/13 09:17:17;;;;;;;;;;;;;;;21.03;54.20;99981.91;5018207;28;4178;-67
2023/01/13 09:19:43;;;;;;;;;;;;;;;20.94;54.49;99978.06;5016120;28;4150;-69
2023/01/13 09:22:12;;;;;;;;;;;;;;;21.05;54.39;99984.81;5012701;28;5122;-67
2023/01/13 09:24:39;;;;;;;;;;;;;;;20.99;54.25;99982.50;5012822;28;4209;-66
2023/01/13 09:27:05;;;;;;;;;;;;;;;20.89;54.41;99985.81;5013434;28;4393;-67
2023/01/13 09:29:31;;;;;;;;;;;;;;;20.96;54.44;99980.22;5007363;28;4222;-66
2023/01/13 09:31:58;;;;;;;;;;;;;;;20.91;54.17;99982.25;5016756;28;3978;-70
2023/01/13 09:37:09;;;;;;;;;;;;;;;20.63;54.57;99976.38;5019400;28;4309;-71
2023/01/13 09:39:36;;;;;;;;;;;;;;;20.59;54.73;99953.22;5017230;28;4166;-70
2023/01/13 09:45:12;;;;;;;;;;;;;;;20.90;54.26;99970.00;5012833;28;5373;-65
2023/01/13 09:47:42;;;;;;;;;;;;;;;20.93;54.45;99991.69;5013440;28;4473;-66
2023/01/13 09:50:23;;;;;;;;;;;;;;;20.93;54.11;99982.31;5001536;28;4182;-66
2023/01/13 09:52:49;;;;;;;;;;;;;;;20.96;53.91;99994.63;5009975;28;4113;-69
2023/01/13 09:55:22;;;;;;;;;;;;;;;21.06;53.94;99992.06;5011180;28;5234;-70
2023/01/13 09:57:48;;;;;;;;;;;;;;;21.14;54.12;100009.56;4993639;28;4034;-67
2023/01/13 10:00:21;;;;;;;;;;;;;;;21.18;53.69;99997.44;5015334;28;5374;-66
2023/01/13 10:03:06;;;;;;;;;;;;;;;21.23;53.60;99999.75;4992126;28;4176;-71
2023/01/13 10:05:36;;;;;;;;;;;;;;;21.17;53.31;100005.34;5013686;28;4998;-68
2023/01/13 10:08:13;;;;;;;;;;;;;;;21.12;53.40;99995.88;5018367;28;4170;-68
2023/01/13 10:10:50;;;;;;;;;;;;;;;21.13;53.51;100005.22;4990283;28;4156;-67
2023/01/13 10:13:18;;;;;;;;;;;;;;;21.15;53.53;99999.53;4991310;28;4564;-70
2023/01/13 10:15:51;;;;;;;;;;;;;;;21.19;53.06;99999.66;5018403;28;4229;-70
2023/01/13 10:18:21;;;;;;;;;;;;;;;21.21;53.30;99998.97;4993308;28;4170;-71
2023/01/13 10:21:00;;;;;;;;;;;;;;;21.25;52.93;99988.28;4991712;28;4118;-72
2023/01/13 10:23:33;;;;;;;;;;;;;;;21.16;53.16;99986.59;5003262;28;4345;-70
2023/01/13 10:26:02;;;;;;;;;;;;;;;21.12;53.41;99989.38;5004079;28;5232;-70
2023/01/13 10:28:29;;;;;;;;;;;;;;;21.07;52.86;99999.28;4991599;28;4150;-70
2023/01/13 10:30:55;;;;;;;;;;;;;;;20.96;53.22;99994.63;5020377;28;4142;-67
2023/01/13 10:33:23;;;;;;;;;;;;;;;20.99;53.28;99994.03;4999095;28;4210;-73
2023/01/13 10:36:00;;;;;;;;;;;;;;;21.06;53.16;99998.56;5004394;28;4173;-69
2023/01/13 10:38:30;;;;;;;;;;;;;;;21.05;53.10;99997.09;5004133;28;4392;-69
2023/01/13 10:40:57;;;;;;;;;;;;;;;20.96;53.60;99994.63;4997627;28;4180;-68
2023/01/13 10:43:23;;;;;;;;;;;;;;;20.87;54.13;99988.63;5015232;28;4099;-69
2023/01/13 10:45:51;;;;;;;;;;;;;;;20.86;54.31;99992.19;5018359;28;4153;-72
2023/01/13 10:48:17;;;;;;;;;;;;;;;20.67;53.98;99994.50;5018913;28;5469;-74
2023/01/13 10:50:45;;;;;;;;;;;;;;;20.73;54.19;99996.84;5023805;28;4313;-69
2023/01/13 10:53:18;;;;;;;;;;;;;;;20.75;54.70;99994.00;5012094;28;4579;-70
2023/01/13 10:55:56;;;;;;;;;;;;;;;20.78;54.59;99991.94;5009796;28;4148;-69
2023/01/13 10:58:23;;;;;;;;;;;;;;;20.71;54.73;99999.66;5018434;28;5385;-69
2023/01/13 11:00:50;;;;;;;;;;;;;;;20.84;54.23;99989.97;4999178;28;4550;-69
2023/01/13 11:03:20;;;;;;;;;;;;;;;21.00;54.24;99989.00;5001528;28;4271;-69
2023/01/13 11:05:47;;;;;;;;;;;;;;;21.02;54.28;99994.81;4993949;28;4005;-70
2023/01/13 11:08:15;;;;;;;;;;;;;;;21.09;53.96;99990.72;5020415;28;4105;-69
2023/01/13 11:10:45;;;;;;;;;;;;;;;21.16;53.72;99995.22;5014758;28;4207;-68
2023/01/13 11:13:15;;;;;;;;;;;;;;;21.20;53.40;99995.34;5019747;28;5459;-72
2023/01/13 11:15:54;;;;;;;;;;;;;;;21.07;52.01;99987.75;5022929;28;4108;-69
2023/01/13 11:18:23;;;;;;;;;;;;;;;21.10;51.83;99986.44;5018147;28;4222;-68
2023/01/13 11:20:49;;;;;;;;;;;;;;;21.10;52.02;99986.44;5009064;28;4827;-72
2023/01/13 11:23:16;;;;;;;;;;;;;;;21.20;52.60;99989.59;4995810;28;5701;-69
2023/01/13 11:25:43;;;;;;;;;;;;;;;21.07;53.22;99993.53;5019565;28;5606;-66
2023/01/13 11:28:27;;;;;;;;;;;;;;;21.21;52.94;99991.09;5019056;28;5760;-71
2023/01/13 11:30:55;;;;;;;;;;;;;;;21.26;52.91;99994.81;5016440;28;3994;-68
2023/01/13 11:33:34;;;;;;;;;;;;;;;21.25;52.94;99985.41;5020772;28;4420;-70
2023/01/13 11:36:11;;;;;;;;;;;;;;;21.25;53.04;99991.19;5002358;28;4350;-69
2023/01/13 11:38:48;;;;;;;;;;;;;;;21.29;53.16;99996.31;5021739;28;5362;-74
2023/01/13 11:41:33;;;;;;;;;;;;;;;21.28;53.29;99997.72;5018898;28;4717;-69
2023/01/13 11:44:08;;;;;;;;;;;;;;;21.27;53.28;99982.59;5024163;28;4068;-74
2023/01/13 11:46:35;;;;;;;;;;;;;;;21.29;53.42;99991.28;5016815;28;4114;-71
2023/01/13 11:49:01;;;;;;;;;;;;;;;21.31;53.32;99993.50;5015121;28;5630;-69
2023/01/13 11:51:37;;;;;;;;;;;;;;;21.31;53.50;99994.25;4989454;28;4140;-70
2023/01/13 11:54:30;;;;;;;;;;;;;;;21.34;53.17;100015.91;4999141;28;4031;-71
2023/01/13 11:57:00;;;;;;;;;;;;;;;21.33;53.19;100000.06;4969826;28;4313;-71
2023/01/13 11:59:49;;;;;;;;;;;;;;;21.32;53.13;100001.44;4989314;28;4174;-71
2023/01/13 12:02:34;;;;;;;;;;;;;;;21.32;53.04;100018.00;4996363;28;4119;-72
2023/01/13 12:05:00;;;;;;;;;;;;;;;21.12;51.40;99998.00;4990265;28;4535;-68
2023/01/13 12:07:45;;;;;;;;;;;;;;;20.92;50.49;100001.00;4992017;28;5224;-71
2023/01/13 12:10:15;;;;;;;;;;;;;;;20.84;50.49;99995.72;4998060;28;4146;-67
2023/01/13 12:12:54;;;;;;;;;;;;;;;20.68;49.91;100006.72;4992760;28;4215;-69
2023/01/13 12:15:21;;;;;;;;;;;;;;;20.79;49.97;100005.63;4999085;28;5336;-69
2023/01/13 12:17:56;;;;;;;;;;;;;;;20.85;50.38;100000.09;5001507;28;4093;-69
2023/01/13 12:20:41;;;;;;;;;;;;;;;20.83;50.73;99996.41;4987235;28;5179;-69
2023/01/13 12:23:23;;;;;;;;;;;;;;;20.86;50.77;100010.16;4993929;28;4028;-69
2023/01/13 12:25:51;;;;;;;;;;;;;;;20.90;50.85;100000.94;4989129;28;4149;-69
2023/01/13 12:28:23;;;;;;;;;;;;;;;20.85;50.79;100002.97;4996993;28;5165;-69
2023/01/13 12:30:50;;;;;;;;;;;;;;;20.85;50.95;100016.63;5000790;28;4208;-70
2023/01/13 12:33:19;;;;;;;;;;;;;;;20.86;51.10;100010.16;4988932;28;4088;-69
2023/01/13 12:35:52;;;;;;;;;;;;;;;20.86;51.25;100009.44;4998740;28;3986;-70
2023/01/13 12:38:32;;;;;;;;;;;;;;;20.88;51.20;100001.59;4986542;28;4086;-70
2023/01/13 12:41:18;;;;;;;;;;;;;;;20.89;51.07;100008.84;4988908;28;4374;-69
2023/01/13 12:46:33;;;;;;;;;;;;;;;20.85;51.38;100017.34;4983533;28;4085;-70
2023/01/13 12:49:03;;;;;;;;;;;;;;;20.83;51.39;100022.31;4995182;28;4184;-70
2023/01/13 12:51:32;;;;;;;;;;;;;;;20.83;51.48;100020.16;4998228;28;4196;-69
2023/01/13 12:53:58;;;;;;;;;;;;;;;20.86;51.41;100004.41;5020294;28;4529;-69
2023/01/13 12:56:26;;;;;;;;;;;;;;;20.84;51.57;100015.88;5017713;28;4189;-69
2023/01/13 12:59:12;;;;;;;;;;;;;;;20.81;51.58;100025.84;5017640;28;4098;-70
2023/01/13 13:01:39;;;;;;;;;;;;;;;20.82;51.68;100020.81;4998301;28;4157;-69
2023/01/13 13:04:09;;;;;;;;;;;;;;;20.82;51.62;100020.81;5021748;28;5308;-69
2023/01/13 13:06:36;;;;;;;;;;;;;;;20.79;51.72;100020.03;5003434;28;5306;-69
2023/01/13 13:09:03;;;;;;;;;;;;;;;20.77;51.76;100014.22;4988893;28;4188;-69
2023/01/13 13:14:37;;;;;;;;;;;;;;;20.68;52.00;100024.75;5013172;28;4171;-69
2023/01/13 13:17:30;;;;;;;;;;;;;;;20.64;52.14;100041.16;5004634;28;4360;-71
2023/01/13 13:19:57;;;;;;;;;;;;;;;19.79;46.22;100025.31;5010501;28;5471;-71
2023/01/13 13:22:26;;;;;;;;;;;;;;;20.03;45.77;100029.03;5013040;28;4021;-71
2023/01/13 13:24:53;;;;;;;;;;;;;;;20.23;45.79;100034.75;5014569;28;3933;-69
2023/01/13 13:27:27;;;;;;;;;;;;;;;20.36;46.75;100035.88;5005634;28;4147;-70
2023/01/13 13:29:56;;;;;;;;;;;;;;;20.44;49.37;100035.44;4980551;28;4083;-69
2023/01/13 13:32:41;;;;;;;;;;;;;;;20.47;49.47;100040.56;5013020;28;4104;-71
2023/01/13 13:35:19;;;;;;;;;;;;;;;20.72;50.36;100047.13;5012432;28;5076;-74
2023/01/13 13:49:10;;;;;;;;;;;;;;;21.22;50.30;100049.38;5005735;28;5289;-66
2023/01/13 13:51:41;;;;;;;;;;;;;;;21.20;50.46;100047.19;5012235;28;4145;-72
2023/01/13 13:54:09;;;;;;;;;;;;;;;21.42;50.21;100038.50;5005815;28;4616;-73
2023/01/13 13:56:37;;;;;;;;;;;;;;;21.41;49.77;100042.03;5012124;28;4000;-73
2023/01/13 13:59:03;;;;;;;;;;;;;;;21.17;50.09;100048.53;5015646;28;3989;-72
2023/01/13 14:01:34;;;;;;;;;;;;;;;20.80;50.79;100058.91;5008433;28;4137;-76
2023/01/13 14:04:09;;;;;;;;;;;;;;;20.78;50.85;100055.25;4980470;28;3989;-74
2023/01/13 14:06:35;;;;;;;;;;;;;;;20.89;51.19;100060.66;5001108;28;3993;-70
2023/01/13 14:09:02;;;;;;;;;;;;;;;20.28;49.44;100067.25;5015383;28;4098;-74
2023/01/13 14:11:30;;;;;;;;;;;;;;;20.41;48.35;100059.75;5019873;28;3907;-70